TimeEDT,TemperatureF,Dew PointF,Humidity,Sea Level PressureIn,VisibilityMPH,Wind Direction,Wind SpeedMPH,Gust SpeedMPH,PrecipitationIn,Events,Conditions,WindDirDegrees,DateUTC
12:51 AM,50.0,41.0,71,29.74,10.0,WSW,6.9,-,N/A,,Clear,240,2012-10-21 04:51:00
1:51 AM,48.0,41.0,77,29.76,10.0,WSW,5.8,-,N/A,,Clear,240,2012-10-21 05:51:00
2:51 AM,46.0,39.9,79,29.76,10.0,South,3.5,-,N/A,,Clear,180,2012-10-21 06:51:00
3:51 AM,45.0,39.0,80,29.77,10.0,Calm,Calm,-,N/A,,Clear,0,2012-10-21 07:51:00
4:51 AM,37.9,37.0,97,29.78,10.0,Calm,Calm,-,N/A,,Clear,0,2012-10-21 08:51:00
5:51 AM,39.0,37.0,93,29.81,10.0,Calm,Calm,-,N/A,,Clear,0,2012-10-21 09:51:00
6:51 AM,35.1,35.1,100,29.81,10.0,SE,4.6,-,N/A,,Clear,140,2012-10-21 10:51:00
7:51 AM,41.0,37.9,89,29.83,10.0,Calm,Calm,-,N/A,,Clear,0,2012-10-21 11:51:00
8:51 AM,48.9,39.9,71,29.83,10.0,SW,5.8,-,N/A,,Clear,230,2012-10-21 12:51:00
9:51 AM,54.0,41.0,62,29.83,10.0,WSW,5.8,-,N/A,,Clear,250,2012-10-21 13:51:00
10:51 AM,55.0,39.9,57,29.83,10.0,West,10.4,-,N/A,,Mostly Cloudy,270,2012-10-21 14:51:00
11:51 AM,59.0,39.0,48,29.83,10.0,West,15.0,23.0,N/A,,Partly Cloudy,280,2012-10-21 15:51:00
12:51 PM,60.1,39.0,46,29.82,10.0,WNW,11.5,20.7,N/A,,Overcast,290,2012-10-21 16:51:00
1:51 PM,61.0,37.0,41,29.81,10.0,WNW,20.7,28.8,N/A,,Mostly Cloudy,290,2012-10-21 17:51:00
2:51 PM,61.0,36.0,39,29.81,10.0,West,17.3,27.6,N/A,,Mostly Cloudy,280,2012-10-21 18:51:00
3:51 PM,60.1,37.0,42,29.82,10.0,West,6.9,18.4,N/A,,Overcast,270,2012-10-21 19:51:00
4:51 PM,57.9,39.0,49,29.83,10.0,West,10.4,-,N/A,,Overcast,280,2012-10-21 20:51:00
5:51 PM,55.9,39.9,55,29.83,10.0,West,8.1,-,N/A,,Overcast,280,2012-10-21 21:51:00
6:51 PM,54.0,39.9,59,29.84,10.0,West,11.5,-,N/A,,Clear,280,2012-10-21 22:51:00
7:51 PM,53.1,41.0,64,29.84,10.0,West,9.2,-,N/A,,Clear,280,2012-10-21 23:51:00
8:51 PM,54.0,42.1,64,29.86,10.0,WNW,9.2,-,N/A,,Mostly Cloudy,290,2012-10-22 00:51:00
9:51 PM,53.1,42.1,66,29.86,10.0,WNW,5.8,-,N/A,,Mostly Cloudy,290,2012-10-22 01:51:00
10:51 PM,48.0,42.1,80,29.87,10.0,Calm,Calm,-,N/A,,Clear,0,2012-10-22 02:51:00
11:51 PM,48.0,42.1,80,29.86,10.0,South,3.5,-,N/A,,Overcast,180,2012-10-22 03:51:00